Time;durP1;ratioP1;P1;durP2;ratioP2;P2;SDS_P1;SDS_P2;PMS_P1;PMS_P2;Temp;Humidity;BMP_temperature;BMP_pressure;BME280_temperature;BME280_humidity;BME280_pressure;Samples;Min_cycle;Max_cycle;Signal;HPM_P1;HPM_P2
2022/01/17 00:01:21;;;;;;;45.42;27.70;;;;;;;-3.50;68.16;95347.72;4951989;28;20031;-81
2022/01/17 00:03:46;;;;;;;38.03;23.60;;;;;;;-3.60;67.87;95336.88;4967187;28;20606;-81
2022/01/17 00:06:12;;;;;;;32.38;18.52;;;;;;;-3.53;68.26;95337.63;4993871;28;20050;-80
2022/01/17 00:08:43;;;;;;;35.85;19.67;;;;;;;-3.55;68.68;95331.72;4974217;28;20036;-80
2022/01/17 00:11:09;;;;;;;19.25;11.50;;;;;;;-3.60;68.37;95331.81;5008181;28;20121;-80
2022/01/17 00:13:35;;;;;;;16.23;9.60;;;;;;;-3.62;68.98;95334.41;4957787;28;20117;-80
2022/01/17 00:16:13;;;;;;;15.75;9.95;;;;;;;-3.64;68.40;95337.84;4988613;28;20034;-81
2022/01/17 00:21:04;;;;;;;21.98;12.85;;;;;;;-3.71;68.63;95334.56;4974039;28;20531;-80
2022/01/17 00:23:30;;;;;;;19.30;11.77;;;;;;;-3.79;68.33;95336.41;4961223;28;20487;-79
2022/01/17 00:25:56;;;;;;;17.83;11.32;;;;;;;-3.75;68.79;95343.09;4989971;28;20034;-81
2022/01/17 00:28:21;;;;;;;17.33;10.00;;;;;;;-3.77;68.90;95349.91;4988801;28;20495;-81
2022/01/17 00:30:46;;;;;;;13.85;8.73;;;;;;;-3.85;69.04;95336.53;5006205;28;20049;-80
2022/01/17 00:33:12;;;;;;;19.25;9.88;;;;;;;-3.92;68.92;95330.72;5007377;28;20022;-81
2022/01/17 00:35:37;;;;;;;15.20;9.52;;;;;;;-3.85;68.39;95344.13;4972642;28;20034;-81
2022/01/17 00:38:03;;;;;;;13.93;9.23;;;;;;;-3.93;68.66;95340.91;4995717;28;20023;-79
2022/01/17 00:40:29;;;;;;;14.88;8.68;;;;;;;-3.91;69.24;95346.78;4987944;28;20042;-80
2022/01/17 00:42:54;;;;;;;16.50;10.07;;;;;;;-3.92;68.84;95343.44;4986789;28;20420;-81
2022/01/17 00:45:26;;;;;;;13.70;9.30;;;;;;;-3.95;68.65;95342.66;4986814;28;20086;-81
2022/01/17 00:47:51;;;;;;;15.50;9.40;;;;;;;-3.94;69.12;95351.94;4987113;28;20049;-80
2022/01/17 00:50:17;;;;;;;22.05;10.13;;;;;;;-4.01;68.80;95350.34;4987663;28;20046;-80
2022/01/17 00:52:42;;;;;;;17.27;10.15;;;;;;;-4.07;68.82;95349.63;4961728;28;20030;-81
2022/01/17 00:55:08;;;;;;;14.63;9.38;;;;;;;-4.05;69.14;95350.41;4982273;28;20031;-80
2022/01/17 00:57:33;;;;;;;16.45;9.75;;;;;;;-4.10;69.76;95331.88;4976847;28;20082;-80
2022/01/17 00:59:59;;;;;;;16.85;9.10;;;;;;;-3.98;69.38;95345.22;4976358;28;20046;-81
2022/01/17 01:02:25;;;;;;;16.35;9.57;;;;;;;-4.05;69.48;95330.09;4988173;28;20027;-81
2022/01/17 01:04:50;;;;;;;15.63;8.95;;;;;;;-4.01;68.91;95335.13;4960962;28;20031;-80
2022/01/17 01:07:15;;;;;;;13.60;8.73;;;;;;;-4.09;68.88;95318.34;4973567;28;20050;-81
2022/01/17 01:10:14;;;;;;;14.80;9.27;;;;;;;-4.06;69.25;95328.44;4986922;28;20034;-81
2022/01/17 01:12:33;;;;;;;17.15;9.38;;;;;;;-4.08;68.96;95319.19;4978056;28;20124;-81
2022/01/17 01:14:58;;;;;;;16.40;9.40;;;;;;;-4.16;69.70;95323.56;4976273;28;20515;-81
2022/01/17 01:17:36;;;;;;;17.67;11.00;;;;;;;-4.20;69.63;95325.31;4962122;28;20424;-79
2022/01/17 01:28:16;;;;;;;16.73;10.15;;;;;;;-4.17;69.96;95317.66;4971964;28;20049;-81
2022/01/17 01:30:46;;;;;;;17.73;9.85;;;;;;;-4.16;70.09;95311.69;4941485;28;20043;-80
2022/01/17 01:33:16;;;;;;;16.95;9.98;;;;;;;-4.15;69.66;95318.47;4957279;28;20054;-80
2022/01/17 01:35:46;;;;;;;14.65;9.40;;;;;;;-4.23;69.92;95310.16;4958771;28;20031;-80
2022/01/17 01:38:11;;;;;;;15.48;10.13;;;;;;;-4.19;70.47;95291.44;4983572;28;20033;-80
2022/01/17 01:40:37;;;;;;;17.00;10.27;;;;;;;-4.07;70.61;95309.00;4973984;28;20042;-81
2022/01/17 01:43:02;;;;;;;19.95;9.95;;;;;;;-4.14;69.89;95309.16;4975681;28;20026;-80
2022/01/17 01:45:28;;;;;;;17.27;9.48;;;;;;;-4.22;69.52;95311.81;4991515;28;20123;-81
2022/01/17 01:47:53;;;;;;;16.52;9.70;;;;;;;-4.34;69.97;95296.81;4973029;28;20034;-80
2022/01/17 01:50:19;;;;;;;16.17;9.43;;;;;;;-4.31;70.16;95302.66;4972943;28;20046;-81
2022/01/17 01:52:45;;;;;;;15.45;10.00;;;;;;;-4.28;69.85;95306.84;4975640;28;20023;-81
2022/01/17 01:55:12;;;;;;;16.80;10.20;;;;;;;-4.26;69.60;95307.66;4960103;28;20541;-80
2022/01/17 01:57:37;;;;;;;18.45;9.73;;;;;;;-4.29;69.90;95305.16;4980015;28;20113;-80
2022/01/17 02:00:04;;;;;;;17.52;9.80;;;;;;;-4.26;70.64;95302.59;4956542;28;20065;-80
2022/01/17 02:02:30;;;;;;;18.40;10.15;;;;;;;-4.27;70.16;95300.91;4987954;28;20030;-80
2022/01/17 02:04:55;;;;;;;14.70;10.23;;;;;;;-4.30;70.48;95293.34;4986906;28;20405;-81
2022/01/17 02:07:22;;;;;;;19.90;11.07;;;;;;;-4.31;70.05;95301.84;4954067;28;20402;-81
2022/01/17 02:09:47;;;;;;;15.35;9.45;;;;;;;-4.31;70.25;95300.13;4954563;28;20054;-80
2022/01/17 02:12:14;;;;;;;19.20;12.20;;;;;;;-4.25;71.19;95285.66;4966204;28;20034;-81
2022/01/17 02:14:39;;;;;;;22.45;12.27;;;;;;;-4.31;70.88;95271.38;4967957;28;20033;-81
2022/01/17 02:17:05;;;;;;;25.50;13.77;;;;;;;-4.15;70.79;95282.94;4960352;28;20501;-81
2022/01/17 02:19:31;;;;;;;25.58;13.63;;;;;;;-4.22;70.86;95273.75;4937012;29;20039;-81
2022/01/17 02:21:56;;;;;;;28.55;15.27;;;;;;;-4.13;70.52;95277.81;4964786;28;20029;-80
2022/01/17 02:24:22;;;;;;;36.90;16.70;;;;;;;-4.13;70.87;95283.72;4951477;28;20038;-80
2022/01/17 02:26:50;;;;;;;30.42;13.50;;;;;;;-4.15;69.72;95282.94;4975157;28;20038;-79
2022/01/17 02:29:15;;;;;;;22.63;12.00;;;;;;;-4.06;69.61;95277.69;4946007;28;20497;-81
2022/01/17 02:31:41;;;;;;;18.10;10.50;;;;;;;-3.97;69.53;95293.59;4952528;29;20047;-81
2022/01/17 02:34:07;;;;;;;27.50;12.38;;;;;;;-3.88;69.75;95280.72;4966068;28;20031;-81
2022/01/17 02:36:32;;;;;;;19.17;10.43;;;;;;;-3.85;69.38;95285.75;4972961;28;20046;-81
2022/01/17 02:38:58;;;;;;;18.38;9.68;;;;;;;-3.84;69.77;95265.41;4972611;28;20030;-81
2022/01/17 02:41:33;;;;;;;14.20;8.48;;;;;;;-3.68;69.31;95278.63;4961613;28;20041;-80
2022/01/17 02:44:01;;;;;;;17.95;9.85;;;;;;;-3.71;69.67;95272.78;4971904;28;20108;-80
2022/01/17 02:46:27;;;;;;;18.10;9.95;;;;;;;-3.66;69.17;95276.06;4971631;28;20031;-81
2022/01/17 02:48:56;;;;;;;19.17;9.80;;;;;;;-3.68;69.46;95283.69;4971711;28;20030;-81
2022/01/17 02:51:22;;;;;;;15.02;9.05;;;;;;;-3.71;69.40;95281.22;4953300;28;20058;-81
2022/01/17 02:53:47;;;;;;;16.20;9.70;;;;;;;-3.74;68.87;95276.22;4970691;28;20058;-80
2022/01/17 02:56:13;;;;;;;16.08;9.48;;;;;;;-3.72;69.34;95271.13;4976204;28;20038;-81
2022/01/17 02:58:40;;;;;;;13.43;8.57;;;;;;;-3.71;69.26;95275.31;4974415;28;20030;-81
2022/01/17 03:01:13;;;;;;;14.15;8.15;;;;;;;-3.71;69.18;95276.16;4955479;28;20038;-80
2022/01/17 03:03:40;;;;;;;17.25;8.88;;;;;;;-3.66;69.34;95281.97;4971698;28;20037;-80
2022/01/17 03:06:06;;;;;;;15.25;8.77;;;;;;;-3.77;69.08;95273.75;4975931;28;20034;-80
2022/01/17 03:08:33;;;;;;;16.20;9.48;;;;;;;-3.69;68.58;95282.03;4972731;28;20031;-81
2022/01/17 03:10:58;;;;;;;15.13;9.43;;;;;;;-3.74;68.12;95285.53;4943251;28;20038;-81
2022/01/17 03:13:29;;;;;;;16.00;9.32;;;;;;;-3.70;69.22;95269.38;4990891;28;20340;-80
2022/01/17 03:15:56;;;;;;;15.80;9.23;;;;;;;-3.69;69.14;95279.50;4967605;28;20114;-81
2022/01/17 03:18:23;;;;;;;17.42;9.18;;;;;;;-3.73;69.24;95255.06;4955732;28;20034;-81
2022/01/17 03:20:49;;;;;;;17.15;8.93;;;;;;;-3.65;69.13;95258.28;4971272;28;20046;-80
2022/01/17 03:23:14;;;;;;;16.65;9.52;;;;;;;-3.61;68.72;95254.78;4971205;28;20027;-79
2022/01/17 03:25:39;;;;;;;20.13;10.27;;;;;;;-3.62;68.38;95253.13;4940673;28;20046;-80
2022/01/17 03:28:05;;;;;;;19.38;10.63;;;;;;;-3.60;68.24;95256.44;4972772;28;20051;-81
2022/01/17 03:30:33;;;;;;;14.85;8.63;;;;;;;-3.66;67.88;95265.91;4991388;28;20396;-81
2022/01/17 03:33:06;;;;;;;14.85;7.95;;;;;;;-3.85;66.95;95266.25;4956410;28;20039;-80
2022/01/17 03:35:31;;;;;;;13.80;8.15;;;;;;;-3.86;67.06;95276.47;4953975;28;20066;-81
2022/01/17 03:37:57;;;;;;;13.82;8.02;;;;;;;-3.97;67.59;95270.75;4971753;28;20023;-79
2022/01/17 03:40:22;;;;;;;14.40;8.13;;;;;;;-3.95;67.60;95279.19;4971944;28;20035;-80
2022/01/17 03:42:48;;;;;;;13.13;8.35;;;;;;;-4.01;68.36;95280.16;4970808;28;20504;-81
2022/01/17 03:45:13;;;;;;;19.45;8.60;;;;;;;-4.16;68.29;95271.09;4951669;28;20039;-81
2022/01/17 03:47:41;;;;;;;13.93;7.75;;;;;;;-4.07;67.80;95295.47;4952555;28;20042;-78
2022/01/17 03:50:09;;;;;;;12.85;7.75;;;;;;;-4.15;69.19;95297.31;4988387;28;20054;-80
2022/01/17 03:52:35;;;;;;;13.02;7.85;;;;;;;-4.19;69.39;95286.38;4970636;28;20038;-80
2022/01/17 03:55:00;;;;;;;14.20;7.65;;;;;;;-4.19;68.98;95295.69;4971054;28;20035;-81
2022/01/17 03:57:25;;;;;;;14.07;7.75;;;;;;;-4.28;68.79;95284.00;4978448;28;20026;-81
2022/01/17 03:59:51;;;;;;;15.95;7.88;;;;;;;-4.37;68.53;95287.56;4973454;28;20035;-80
2022/01/17 04:02:16;;;;;;;17.02;8.85;;;;;;;-4.34;68.81;95292.56;4984897;28;20042;-81
2022/01/17 04:04:42;;;;;;;18.35;9.40;;;;;;;-4.45;69.11;95279.25;4992110;28;20038;-79
2022/01/17 04:07:07;;;;;;;15.30;8.77;;;;;;;-4.43;68.88;95281.72;4964144;28;20023;-80
2022/01/17 04:09:32;;;;;;;16.10;8.85;;;;;;;-4.46;69.63;95275.00;4970885;28;20473;-80
2022/01/17 04:11:58;;;;;;;13.68;8.30;;;;;;;-4.41;69.28;95285.09;4982693;28;20416;-81
2022/01/17 04:14:23;;;;;;;15.02;8.15;;;;;;;-4.38;69.07;95282.50;4989107;28;20550;-81
2022/01/17 04:16:49;;;;;;;13.63;7.68;;;;;;;-4.47;68.95;95280.13;4974277;28;20027;-81
2022/01/17 04:19:16;;;;;;;14.52;8.15;;;;;;;-4.52;69.68;95298.78;4970696;28;20027;-80
2022/01/17 04:21:42;;;;;;;13.63;8.13;;;;;;;-4.65;69.39;95294.78;4960032;28;20034;-80
2022/01/17 04:24:07;;;;;;;17.52;8.45;;;;;;;-4.63;69.69;95297.28;4961738;28;20123;-81
2022/01/17 04:26:32;;;;;;;12.52;7.88;;;;;;;-4.65;70.13;95292.25;4971964;28;20023;-80
2022/01/17 04:28:58;;;;;;;12.63;7.88;;;;;;;-4.63;70.37;95287.97;4974244;28;20424;-81
2022/01/17 04:31:23;;;;;;;14.70;8.80;;;;;;;-4.66;70.01;95293.09;4974027;28;20031;-81
2022/01/17 04:33:49;;;;;;;16.25;8.95;;;;;;;-4.61;70.81;95304.00;4964024;28;20038;-80
2022/01/17 04:36:14;;;;;;;14.50;8.13;;;;;;;-4.61;70.24;95304.00;4992632;28;20559;-81
2022/01/17 04:38:39;;;;;;;17.60;9.35;;;;;;;-4.59;69.89;95301.47;4951623;28;20031;-81
2022/01/17 04:41:13;;;;;;;18.63;8.10;;;;;;;-4.61;69.31;95304.00;4973913;28;20147;-81
2022/01/17 04:46:04;;;;;;;16.50;8.35;;;;;;;-4.71;69.60;95307.53;4991469;28;20435;-80
2022/01/17 04:48:30;;;;;;;13.15;7.72;;;;;;;-4.75;69.40;95301.69;4988031;28;20065;-80
2022/01/17 04:50:56;;;;;;;15.70;8.23;;;;;;;-4.76;70.00;95284.81;4975297;28;20081;-80
2022/01/17 04:53:22;;;;;;;20.77;10.05;;;;;;;-4.78;70.36;95291.59;4986696;28;20414;-80
2022/01/17 04:55:48;;;;;;;20.33;11.20;;;;;;;-4.77;70.27;95288.19;4991211;28;20050;-80
2022/01/17 04:58:13;;;;;;;19.27;9.57;;;;;;;-4.73;71.22;95284.75;4977109;28;20027;-79
2022/01/17 05:00:46;;;;;;;15.18;8.07;;;;;;;-4.69;70.58;95280.47;4969032;28;20081;-81
2022/01/17 05:03:12;;;;;;;15.02;7.93;;;;;;;-4.61;70.92;95265.13;4943888;28;20031;-80
2022/01/17 05:05:37;;;;;;;14.35;7.63;;;;;;;-4.49;70.21;95270.81;4968961;28;20448;-81
2022/01/17 05:08:03;;;;;;;15.93;8.02;;;;;;;-4.47;69.74;95275.06;4974921;28;20058;-80
2022/01/17 05:10:28;;;;;;;17.80;8.80;;;;;;;-4.50;69.39;95269.16;4967352;28;20443;-80
2022/01/17 05:12:54;;;;;;;15.25;8.30;;;;;;;-4.59;68.96;95255.81;4943248;28;20509;-81
2022/01/17 05:18:01;;;;;;;16.70;8.35;;;;;;;-4.54;68.79;95272.63;4954720;28;20114;-81
2022/01/17 05:20:26;;;;;;;13.00;7.72;;;;;;;-4.46;69.70;95266.56;4973379;28;20034;-80
2022/01/17 05:22:52;;;;;;;17.92;8.50;;;;;;;-4.47;69.51;95268.28;4973289;28;20397;-79
2022/01/17 05:25:17;;;;;;;15.18;8.60;;;;;;;-4.51;69.43;95264.13;4973497;28;20035;-81
2022/01/17 05:27:43;;;;;;;16.38;8.90;;;;;;;-4.60;69.18;95277.78;4957748;28;20054;-81
2022/01/17 05:30:13;;;;;;;15.20;8.50;;;;;;;-4.65;69.03;95284.66;4952866;28;20504;-81
2022/01/17 05:32:38;;;;;;;14.45;7.90;;;;;;;-4.73;69.28;95279.69;4967808;28;20033;-80
2022/01/17 05:35:04;;;;;;;16.88;8.95;;;;;;;-4.86;68.33;95282.44;4956449;28;20035;-80
2022/01/17 05:37:29;;;;;;;31.73;14.70;;;;;;;-4.86;68.72;95277.38;4972379;28;20617;-79
2022/01/17 05:39:55;;;;;;;50.28;20.67;;;;;;;-4.79;68.70;95278.94;4986595;28;20510;-80
2022/01/17 05:42:20;;;;;;;53.45;22.00;;;;;;;-4.86;69.38;95267.25;4986556;28;20030;-80
2022/01/17 05:44:47;;;;;;;45.63;19.63;;;;;;;-4.76;69.61;95284.81;4973105;28;20035;-81
2022/01/17 05:47:12;;;;;;;44.25;18.52;;;;;;;-4.79;69.47;95289.06;4950620;29;20038;-79
2022/01/17 05:49:38;;;;;;;37.15;16.73;;;;;;;-4.79;69.34;95284.00;4952491;29;20059;-80
2022/01/17 05:52:04;;;;;;;32.15;15.52;;;;;;;-4.79;69.58;95300.09;4936373;29;20035;-81
2022/01/17 05:54:29;;;;;;;24.50;10.85;;;;;;;-4.78;69.85;95288.22;4954233;28;20118;-80
2022/01/17 05:56:55;;;;;;;20.67;10.63;;;;;;;-4.73;70.03;95289.84;4943821;28;20026;-81
2022/01/17 05:59:20;;;;;;;18.45;9.85;;;;;;;-4.84;70.33;95270.59;4960341;28;20031;-81
2022/01/17 06:01:45;;;;;;;19.30;9.25;;;;;;;-4.71;71.02;95287.25;4982655;28;20037;-83
2022/01/17 06:04:11;;;;;;;21.75;9.80;;;;;;;-4.69;70.15;95305.81;4990548;28;20034;-83
2022/01/17 06:06:36;;;;;;;20.33;11.65;;;;;;;-4.74;69.51;95310.13;4990523;28;20022;-83
2022/01/17 06:09:02;;;;;;;21.17;12.38;;;;;;;-4.81;69.59;95316.16;4991323;28;20045;-84
2022/01/17 06:11:28;;;;;;;20.13;10.98;;;;;;;-4.89;69.46;95307.84;4973172;28;20034;-81
2022/01/17 06:13:53;;;;;;;22.88;10.38;;;;;;;-4.83;69.48;95318.72;4991322;28;20030;-83
2022/01/17 06:16:19;;;;;;;20.60;13.35;;;;;;;-4.83;69.90;95312.81;4940543;28;20501;-83
2022/01/17 06:18:44;;;;;;;18.17;11.25;;;;;;;-4.87;70.25;95301.06;4969349;28;20072;-83
2022/01/17 06:21:10;;;;;;;19.38;10.82;;;;;;;-4.77;70.62;95313.53;4965612;28;20042;-83
2022/01/17 06:23:35;;;;;;;21.65;12.50;;;;;;;-4.75;70.46;95305.94;4979971;28;20080;-83
2022/01/17 06:26:00;;;;;;;23.75;14.02;;;;;;;-4.76;70.43;95316.94;4974792;28;20042;-83
2022/01/17 06:28:26;;;;;;;57.83;25.23;;;;;;;-4.71;70.99;95310.06;4990869;28;20385;-83
2022/01/17 06:30:51;;;;;;;44.08;22.65;;;;;;;-4.64;70.60;95320.97;4973790;28;20027;-83
2022/01/17 06:33:17;;;;;;;27.83;14.93;;;;;;;-4.74;70.86;95302.53;4972679;28;20030;-83
2022/01/17 06:35:42;;;;;;;33.10;16.02;;;;;;;-4.72;70.13;95310.94;4970551;28;20030;-83
2022/01/17 06:38:08;;;;;;;31.08;15.52;;;;;;;-4.64;70.80;95319.28;4938132;28;20041;-83
2022/01/17 06:40:33;;;;;;;29.88;15.43;;;;;;;-4.60;71.48;95313.28;4971761;28;20045;-83
2022/01/17 06:42:58;;;;;;;26.10;13.98;;;;;;;-4.59;70.30;95321.75;4981676;28;20034;-83
2022/01/17 06:45:24;;;;;;;23.08;13.27;;;;;;;-4.58;70.14;95309.03;4973316;28;20076;-83
2022/01/17 06:47:50;;;;;;;26.55;14.00;;;;;;;-4.56;70.18;95317.47;4973030;28;20416;-83
2022/01/17 06:50:15;;;;;;;29.10;15.32;;;;;;;-4.51;70.84;95315.69;4969842;28;20085;-83
2022/01/17 06:52:41;;;;;;;30.10;13.77;;;;;;;-4.50;70.86;95322.41;4971840;28;20116;-84
2022/01/17 06:55:07;;;;;;;31.48;17.27;;;;;;;-4.53;70.17;95324.19;4973687;28;20042;-83
2022/01/17 06:57:32;;;;;;;34.65;15.05;;;;;;;-4.55;69.76;95321.66;4969730;28;20035;-82
2022/01/17 06:59:58;;;;;;;27.52;14.50;;;;;;;-4.52;70.22;95318.22;4954539;28;20543;-83
2022/01/17 07:02:23;;;;;;;28.98;14.00;;;;;;;-4.52;69.80;95311.47;4970911;28;20027;-83
2022/01/17 07:04:49;;;;;;;26.25;13.77;;;;;;;-4.45;70.27;95314.75;4954480;28;20058;-83
2022/01/17 07:07:14;;;;;;;26.52;13.60;;;;;;;-4.40;70.35;95318.06;4938627;28;20488;-83
2022/01/17 07:09:40;;;;;;;27.90;17.05;;;;;;;-4.42;70.28;95301.19;4968012;28;20042;-83
2022/01/17 07:12:07;;;;;;;34.50;15.35;;;;;;;-4.25;71.12;95313.56;4935850;29;20510;-83
2022/01/17 07:14:33;;;;;;;28.08;16.13;;;;;;;-4.26;70.92;95317.81;4935098;29;20047;-83
2022/01/17 07:16:58;;;;;;;30.60;17.95;;;;;;;-4.16;70.51;95329.47;4952826;28;20035;-83
2022/01/17 07:19:24;;;;;;;28.98;19.70;;;;;;;-4.06;70.61;95333.53;4980178;28;20034;-83
2022/01/17 07:21:50;;;;;;;26.60;15.23;;;;;;;-4.06;70.58;95328.44;4957735;28;20038;-81
2022/01/17 07:24:15;;;;;;;22.23;11.50;;;;;;;-3.98;70.12;95350.28;4958179;28;20069;-83
2022/01/17 07:26:41;;;;;;;25.42;13.48;;;;;;;-4.06;70.58;95343.66;4991443;28;20034;-82
2022/01/17 07:29:08;;;;;;;22.42;12.45;;;;;;;-3.91;70.67;95359.50;4988800;28;20792;-83
2022/01/17 07:31:36;;;;;;;23.80;10.65;;;;;;;-3.88;70.25;95364.50;4950958;28;20068;-82
2022/01/17 07:34:02;;;;;;;19.60;10.73;;;;;;;-3.80;70.63;95357.59;4987440;28;20777;-83
2022/01/17 07:36:28;;;;;;;25.58;12.65;;;;;;;-3.77;71.05;95341.47;4961881;28;20035;-82
2022/01/17 07:38:54;;;;;;;23.10;12.07;;;;;;;-3.64;70.50;95345.44;4947726;28;20244;-83
2022/01/17 07:41:19;;;;;;;23.38;12.88;;;;;;;-3.55;69.67;95326.66;4977091;28;20424;-82
2022/01/17 07:43:45;;;;;;;25.33;12.82;;;;;;;-3.46;69.41;95308.69;4971090;28;20041;-82
2022/01/17 07:46:29;;;;;;;24.67;13.70;;;;;;;-3.28;68.16;95323.56;4953810;28;20046;-83
2022/01/17 07:51:29;;;;;;;28.73;15.57;;;;;;;-2.41;65.73;95347.91;4974544;28;20130;-82
2022/01/17 07:53:56;;;;;;;24.67;14.43;;;;;;;-2.13;66.04;95340.41;4973613;28;20127;-82
2022/01/17 07:56:22;;;;;;;25.38;14.65;;;;;;;-1.66;62.24;95368.94;4981207;28;20041;-83
2022/01/17 07:58:48;;;;;;;27.42;15.10;;;;;;;-1.33;60.36;95390.13;4989565;28;20027;-83
2022/01/17 08:01:13;;;;;;;30.13;15.13;;;;;;;-1.12;60.17;95421.84;4985435;28;20048;-82
2022/01/17 08:03:38;;;;;;;27.73;14.13;;;;;;;-0.96;60.43;95417.16;4954769;28;20059;-82
2022/01/17 08:06:04;;;;;;;26.95;14.00;;;;;;;-0.76;59.87;95386.78;4956268;28;20038;-81
2022/01/17 08:08:30;;;;;;;30.15;14.70;;;;;;;-0.55;59.19;95381.94;4973581;28;20034;-82
2022/01/17 08:10:55;;;;;;;27.02;14.52;;;;;;;-0.42;59.51;95361.97;4967728;28;20042;-82
2022/01/17 08:13:20;;;;;;;25.23;14.10;;;;;;;-0.40;60.97;95335.50;4988286;28;20042;-80
2022/01/17 08:15:46;;;;;;;24.42;13.32;;;;;;;-0.33;59.52;95313.19;4957286;28;20031;-80
2022/01/17 08:18:12;;;;;;;22.50;11.52;;;;;;;-0.13;55.59;95307.41;4975034;28;20120;-81
2022/01/17 08:20:37;;;;;;;20.20;11.45;;;;;;;0.08;56.00;95308.41;4951158;28;20043;-80
2022/01/17 08:23:03;;;;;;;17.08;10.85;;;;;;;0.23;56.24;95307.91;4954801;29;20036;-81
2022/01/17 08:25:29;;;;;;;17.75;10.43;;;;;;;0.44;54.76;95313.97;4968282;28;20401;-82
2022/01/17 08:27:54;;;;;;;19.20;11.23;;;;;;;0.67;56.37;95369.44;4958463;28;20062;-78
2022/01/17 08:30:20;;;;;;;20.15;11.57;;;;;;;0.72;58.05;95399.94;4958415;28;20404;-81
2022/01/17 08:32:45;;;;;;;18.30;9.75;;;;;;;0.89;52.88;95398.47;4971166;28;20023;-80
2022/01/17 08:35:11;;;;;;;19.63;13.98;;;;;;;1.09;56.74;95435.31;4985831;28;20031;-80
2022/01/17 08:37:37;;;;;;;21.60;12.15;;;;;;;1.21;55.45;95452.75;4982424;28;20030;-79
2022/01/17 08:40:04;;;;;;;17.00;10.65;;;;;;;1.47;52.68;95418.50;4973830;28;20038;-80
2022/01/17 08:42:29;;;;;;;28.10;13.50;;;;;;;1.68;53.18;95393.81;4958192;28;20129;-80
2022/01/17 08:44:56;;;;;;;21.52;13.02;;;;;;;1.95;51.49;95398.75;4958123;28;20074;-80
2022/01/17 08:47:21;;;;;;;20.50;12.27;;;;;;;2.12;51.24;95370.72;4964373;28;20530;-80
2022/01/17 08:49:48;;;;;;;25.30;14.30;;;;;;;2.23;52.41;95345.47;4964272;28;20080;-81
2022/01/17 08:52:15;;;;;;;23.00;12.32;;;;;;;2.40;52.24;95338.81;4959165;28;20059;-80
2022/01/17 08:54:41;;;;;;;27.58;12.15;;;;;;;2.54;52.51;95286.94;4979352;28;20125;-81
2022/01/17 08:57:07;;;;;;;17.52;10.55;;;;;;;2.70;52.31;95275.06;4961152;28;20042;-80
2022/01/17 08:59:32;;;;;;;27.13;11.40;;;;;;;2.83;52.42;95293.31;4973290;28;20043;-81
2022/01/17 09:01:58;;;;;;;17.48;8.73;;;;;;;3.00;51.49;95308.78;4941898;28;20027;-79
2022/01/17 09:04:23;;;;;;;17.55;9.07;;;;;;;3.05;51.69;95267.50;4941602;28;20039;-81
2022/01/17 09:06:49;;;;;;;17.63;10.27;;;;;;;3.16;51.40;95236.22;4957753;28;20022;-81
2022/01/17 09:09:16;;;;;;;20.50;11.00;;;;;;;3.30;51.59;95247.47;4974782;28;20046;-81
2022/01/17 09:11:42;;;;;;;22.88;11.90;;;;;;;3.30;51.80;95241.53;4957304;28;20513;-80
2022/01/17 09:14:08;;;;;;;19.70;10.70;;;;;;;3.36;50.24;95238.66;4957400;28;20486;-81
2022/01/17 09:16:33;;;;;;;22.48;12.45;;;;;;;3.46;50.68;95233.94;4957470;28;20035;-81
2022/01/17 09:19:01;;;;;;;16.80;10.65;;;;;;;3.42;50.67;95225.50;4973547;28;20485;-81
2022/01/17 09:21:26;;;;;;;21.40;10.57;;;;;;;3.39;50.67;95219.69;4974508;28;20485;-80
2022/01/17 09:23:54;;;;;;;17.65;10.80;;;;;;;3.45;51.56;95224.53;4957211;28;20078;-81
2022/01/17 09:26:23;;;;;;;18.75;10.27;;;;;;;3.55;50.96;95225.75;4973466;28;20109;-81
2022/01/17 09:28:48;;;;;;;23.00;11.18;;;;;;;3.58;50.82;95225.59;4942159;28;20421;-80
2022/01/17 09:31:15;;;;;;;19.13;9.52;;;;;;;3.68;49.61;95242.25;4976543;28;20038;-80
2022/01/17 09:33:40;;;;;;;15.35;8.80;;;;;;;3.74;48.14;95220.56;4966583;28;20015;-79
2022/01/17 09:36:05;;;;;;;15.90;8.60;;;;;;;3.86;47.21;95226.81;4973344;28;20104;-80
2022/01/17 09:38:31;;;;;;;15.52;9.60;;;;;;;3.87;47.65;95247.28;4976607;28;20447;-81
2022/01/17 09:40:56;;;;;;;15.38;8.75;;;;;;;4.00;47.66;95243.22;4976184;28;20077;-81
2022/01/17 09:43:22;;;;;;;19.77;10.70;;;;;;;4.10;47.66;95258.19;4992363;28;20389;-81
2022/01/17 09:45:47;;;;;;;23.35;11.75;;;;;;;4.13;47.57;95258.88;4985380;28;20054;-81
2022/01/17 09:48:19;;;;;;;15.30;8.63;;;;;;;4.17;46.20;95251.81;4972916;28;20026;-81
2022/01/17 09:50:56;;;;;;;16.45;9.00;;;;;;;4.29;46.73;95245.22;4957585;28;20133;-81
2022/01/17 09:53:22;;;;;;;15.35;9.15;;;;;;;4.30;47.33;95250.28;4972880;28;20022;-81
2022/01/17 09:55:47;;;;;;;11.98;8.23;;;;;;;4.39;47.22;95254.94;4956701;28;20069;-81
2022/01/17 09:58:13;;;;;;;13.20;8.55;;;;;;;4.44;46.67;95265.84;4972591;28;20034;-82
2022/01/17 10:00:40;;;;;;;15.13;9.25;;;;;;;4.45;47.17;95257.19;4974009;28;20083;-81
2022/01/17 10:03:07;;;;;;;16.15;9.27;;;;;;;4.51;47.03;95253.47;4956568;28;20085;-81
2022/01/17 10:05:33;;;;;;;14.07;9.68;;;;;;;4.52;48.24;95262.88;4940675;28;20038;-81
2022/01/17 10:08:09;;;;;;;14.80;9.15;;;;;;;4.57;47.01;95263.47;4940440;28;20118;-80
2022/01/17 10:11:05;;;;;;;17.33;9.63;;;;;;;4.51;47.57;95265.53;4972592;28;20464;-81
2022/01/17 10:13:34;;;;;;;12.43;9.02;;;;;;;4.57;47.67;95265.19;4959290;28;20121;-81
2022/01/17 10:16:01;;;;;;;18.75;9.65;;;;;;;4.62;48.05;95271.75;4972170;28;20110;-81
2022/01/17 10:18:37;;;;;;;16.17;10.15;;;;;;;4.64;48.97;95269.13;4973455;28;20023;-81
2022/01/17 10:21:12;;;;;;;14.98;8.77;;;;;;;4.62;49.33;95269.19;4972299;28;20105;-81
2022/01/17 10:26:25;;;;;;;;;;;;;;;4.64;49.77;95276.84;4957336;28;20443;-80
2022/01/17 10:34:53;;;;;;;11.65;7.38;;;;;;;4.56;50.03;95260.97;4972321;28;20121;-81
2022/01/17 10:37:09;;;;;;;12.35;6.53;;;;;;;4.39;50.36;95244.66;4972321;28;20084;-82
2022/01/17 10:39:37;;;;;;;10.60;6.80;;;;;;;4.45;50.77;95244.34;4971620;28;20043;-79
2022/01/17 10:42:35;;;;;;;11.45;8.05;;;;;;;4.48;50.95;95245.91;4971775;28;20031;-76
2022/01/17 10:45:06;;;;;;;9.77;6.15;;;;;;;4.39;50.55;95243.84;4956902;28;20038;-76
2022/01/17 10:47:32;;;;;;;10.07;7.20;;;;;;;4.54;50.16;95237.06;4956214;28;20027;-76
2022/01/17 10:50:07;;;;;;;8.95;6.10;;;;;;;4.54;49.95;95239.63;4972773;28;20058;-76
2022/01/17 10:52:38;;;;;;;8.05;5.80;;;;;;;4.36;50.06;95236.28;4955640;28;20107;-77
2022/01/17 10:55:10;;;;;;;9.60;6.40;;;;;;;4.34;49.98;95231.19;4955931;28;20053;-76
2022/01/17 10:57:39;;;;;;;12.50;7.53;;;;;;;4.34;50.07;95231.19;4955786;28;20039;-76
2022/01/17 11:00:25;;;;;;;10.65;6.65;;;;;;;4.37;50.26;95243.91;4939826;28;20182;-76
2022/01/17 11:02:59;;;;;;;10.27;7.13;;;;;;;4.42;49.78;95236.78;4955702;28;20033;-77
2022/01/17 11:05:27;;;;;;;8.63;7.03;;;;;;;4.54;49.57;95242.19;4956081;28;20489;-76
2022/01/17 11:07:53;;;;;;;11.52;8.30;;;;;;;4.60;49.95;95221.31;4971457;28;20030;-77
2022/01/17 11:10:21;;;;;;;14.85;9.38;;;;;;;4.71;49.64;95242.16;4971253;28;20503;-77
2022/01/17 11:12:47;;;;;;;9.98;7.22;;;;;;;4.79;48.92;95232.28;4939347;28;20031;-77
2022/01/17 11:15:14;;;;;;;9.05;6.13;;;;;;;4.75;48.69;95217.91;4971184;28;20449;-77
2022/01/17 11:17:47;;;;;;;10.50;7.22;;;;;;;4.90;48.75;95209.38;4955245;28;20039;-77
2022/01/17 11:20:12;;;;;;;11.45;7.35;;;;;;;4.88;48.43;95208.63;4940998;28;20039;-77
2022/01/17 11:22:41;;;;;;;12.13;7.43;;;;;;;4.99;48.36;95204.66;4972482;28;20468;-76
2022/01/17 11:25:16;;;;;;;11.52;8.55;;;;;;;5.12;48.03;95205.59;4971190;28;20027;-77
2022/01/17 11:27:41;;;;;;;15.20;10.98;;;;;;;5.22;47.73;95187.91;4971192;28;20034;-77
2022/01/17 11:30:07;;;;;;;11.50;7.38;;;;;;;5.22;46.71;95180.19;4971048;28;20118;-77
2022/01/17 11:32:33;;;;;;;10.20;7.28;;;;;;;5.26;46.85;95179.91;4971077;28;20053;-77
2022/01/17 11:34:59;;;;;;;11.75;7.47;;;;;;;5.39;46.75;95185.22;4972228;28;20607;-77
2022/01/17 11:37:26;;;;;;;7.57;5.72;;;;;;;5.20;45.97;95180.25;4971033;28;20085;-77
2022/01/17 11:39:54;;;;;;;10.35;7.10;;;;;;;5.07;45.49;95197.31;4954779;28;20416;-76
2022/01/17 11:42:39;;;;;;;8.90;6.30;;;;;;;4.96;45.74;95194.47;4970940;28;20031;-76
2022/01/17 11:45:25;;;;;;;7.95;5.68;;;;;;;4.95;46.00;95211.69;4970988;28;20049;-77
2022/01/17 11:48:07;;;;;;;6.65;5.13;;;;;;;4.79;46.04;95183.38;4968146;28;20038;-76
2022/01/17 11:50:35;;;;;;;9.73;6.43;;;;;;;4.64;46.47;95202.22;4970971;28;20523;-77